createdAt,value
2023-07-25T00:03:24.460Z,0.40
2023-07-25T00:08:26.400Z,0.40
2023-07-25T00:13:28.705Z,0.40
2023-07-25T00:18:30.918Z,0.40
2023-07-25T00:23:33.046Z,0.50
2023-07-25T00:28:35.078Z,0.40
2023-07-25T00:33:37.128Z,0.40
2023-07-25T00:38:39.214Z,0.40
2023-07-25T00:43:41.151Z,0.30
2023-07-25T00:48:46.151Z,0.40
2023-07-25T00:53:48.156Z,0.30
2023-07-25T00:58:50.269Z,0.68
2023-07-25T01:03:55.009Z,0.35
2023-07-25T01:08:57.959Z,0.40
2023-07-25T01:14:00.047Z,0.20
2023-07-25T01:19:02.437Z,0.32
2023-07-25T01:24:04.870Z,0.20
2023-07-25T01:29:06.932Z,0.30
2023-07-25T01:34:08.973Z,0.70
2023-07-25T01:39:11.262Z,0.20
2023-07-25T01:44:13.621Z,0.50
2023-07-25T01:49:15.663Z,0.20
2023-07-25T01:54:20.772Z,0.32
2023-07-25T01:59:22.905Z,0.30
2023-07-25T02:04:24.893Z,0.57
2023-07-25T02:09:26.945Z,0.30
2023-07-25T02:14:28.955Z,0.50
2023-07-25T02:19:31.342Z,0.25
2023-07-25T02:24:33.402Z,0.30
2023-07-25T02:29:35.386Z,0.20
2023-07-25T02:34:37.306Z,0.60
2023-07-25T02:39:39.322Z,0.30
2023-07-25T02:44:41.224Z,0.50
2023-07-25T02:49:43.364Z,0.40
2023-07-25T02:54:45.478Z,0.30
2023-07-25T02:59:47.419Z,0.50
2023-07-25T03:04:49.387Z,0.55
2023-07-25T03:09:51.522Z,0.22
2023-07-25T03:14:53.366Z,0.32
2023-07-25T03:19:55.393Z,0.30
2023-07-25T03:24:57.523Z,0.40
2023-07-25T03:29:59.747Z,0.40
2023-07-25T03:35:02.017Z,0.40
2023-07-25T03:40:04.393Z,0.47
2023-07-25T03:45:06.859Z,0.32
2023-07-25T03:50:09.034Z,0.22
2023-07-25T03:55:11.429Z,0.30
2023-07-25T04:00:14.092Z,0.52
2023-07-25T04:05:16.630Z,0.35
2023-07-25T04:10:18.747Z,0.43
2023-07-25T04:15:20.817Z,0.30
2023-07-25T04:20:22.635Z,0.20
2023-07-25T04:25:24.985Z,0.22
2023-07-25T04:30:27.201Z,0.35
2023-07-25T04:35:29.088Z,0.28
2023-07-25T04:40:31.023Z,0.52
2023-07-25T04:45:33.062Z,0.40
2023-07-25T04:50:35.144Z,0.55
2023-07-25T04:55:37.312Z,0.22
2023-07-25T05:00:39.535Z,0.22
2023-07-25T05:05:41.525Z,0.20
2023-07-25T05:10:43.448Z,0.20
2023-07-25T05:15:45.569Z,0.20
2023-07-25T05:20:47.633Z,0.40
2023-07-25T05:25:49.536Z,0.52
2023-07-25T05:30:51.437Z,0.40
2023-07-25T05:36:01.216Z,0.50
2023-07-25T05:41:04.116Z,0.45
2023-07-25T05:46:06.596Z,0.40
2023-07-25T05:51:08.489Z,0.73
2023-07-25T05:56:10.656Z,0.55
2023-07-25T06:01:16.409Z,0.47
2023-07-25T06:06:18.532Z,0.47
2023-07-25T06:11:22.660Z,0.47
2023-07-25T06:16:24.873Z,0.57
2023-07-25T06:21:27.577Z,0.60
2023-07-25T06:26:30.013Z,0.43
2023-07-25T06:31:32.756Z,0.90
2023-07-25T06:36:35.105Z,1.88
2023-07-25T06:41:37.403Z,1.20
2023-07-25T06:46:39.486Z,1.02
2023-07-25T06:51:41.732Z,1.77
2023-07-25T06:56:43.907Z,1.40
2023-07-25T07:01:46.047Z,1.60
2023-07-25T07:06:48.166Z,0.95
2023-07-25T07:11:50.159Z,0.98
2023-07-25T07:16:52.148Z,1.08
2023-07-25T07:21:54.204Z,0.98
2023-07-25T07:26:56.379Z,1.33
2023-07-25T07:31:58.370Z,1.48
2023-07-25T07:37:00.301Z,1.10
2023-07-25T07:42:02.993Z,1.23
2023-07-25T07:47:05.511Z,1.40
2023-07-25T07:52:15.392Z,1.42
2023-07-25T07:57:19.490Z,0.80
2023-07-25T08:02:21.749Z,0.80
2023-07-25T08:07:23.810Z,1.00
2023-07-25T08:12:26.092Z,1.00
2023-07-25T08:17:29.892Z,0.82
2023-07-25T08:22:31.946Z,0.93
2023-07-25T08:27:33.976Z,0.60
2023-07-25T08:32:36.298Z,0.85
2023-07-25T08:37:38.685Z,0.80
2023-07-25T08:42:46.841Z,0.70
2023-07-25T08:47:51.466Z,0.73
2023-07-25T08:52:57.059Z,0.70
2023-07-25T08:57:59.348Z,0.77
2023-07-25T09:03:01.533Z,0.57
2023-07-25T09:08:06.921Z,0.60
2023-07-25T09:13:09.127Z,0.90
2023-07-25T09:18:11.275Z,0.60
2023-07-25T09:23:21.547Z,0.60
2023-07-25T09:28:23.680Z,0.68
2023-07-25T09:33:29.010Z,0.60
2023-07-25T09:38:31.140Z,0.70
2023-07-25T09:43:33.188Z,0.73
2023-07-25T09:48:35.284Z,0.52
2023-07-25T09:53:37.591Z,0.63
2023-07-25T09:58:50.743Z,0.50
2023-07-25T10:04:02.271Z,0.60
2023-07-25T10:09:05.269Z,0.40
2023-07-25T10:14:10.342Z,0.77
2023-07-25T10:19:12.605Z,0.63
2023-07-25T10:24:14.874Z,0.50
2023-07-25T10:29:36.863Z,0.98
2023-07-25T10:34:46.676Z,0.98
2023-07-25T10:40:02.433Z,0.50
2023-07-25T10:45:04.901Z,0.65
2023-07-25T10:50:07.594Z,0.90
2023-07-25T10:55:11.968Z,1.83
2023-07-25T11:00:14.932Z,1.00
2023-07-25T11:05:19.834Z,0.82
2023-07-25T11:10:27.353Z,0.68
2023-07-25T11:15:46.578Z,0.93
2023-07-25T11:21:06.641Z,0.82
2023-07-25T11:26:09.024Z,0.77
2023-07-25T11:31:11.231Z,0.93
2023-07-25T11:36:13.523Z,1.00
2023-07-25T11:41:15.822Z,0.88
2023-07-25T11:46:19.552Z,0.85
2023-07-25T11:51:22.148Z,0.60
2023-07-25T11:56:24.930Z,0.73
2023-07-25T12:01:33.302Z,1.02
2023-07-25T12:06:35.969Z,1.33
2023-07-25T12:11:43.325Z,0.68
2023-07-25T12:16:46.733Z,0.95
2023-07-25T12:21:48.974Z,1.35
2023-07-25T12:26:56.203Z,1.75
2023-07-25T12:31:58.441Z,1.33
2023-07-25T12:37:02.297Z,1.33
2023-07-25T12:42:05.624Z,2.38
2023-07-25T12:47:09.175Z,1.90
2023-07-25T12:52:11.408Z,1.10
2023-07-25T12:57:13.492Z,1.50
2023-07-25T13:02:15.743Z,1.08
2023-07-25T13:07:18.078Z,1.17
2023-07-25T13:12:20.228Z,0.70
2023-07-25T13:17:22.360Z,1.20
2023-07-25T13:22:26.389Z,1.08
2023-07-25T13:27:30.570Z,0.70
2023-07-25T13:32:32.940Z,1.38
2023-07-25T13:37:35.174Z,1.65
2023-07-25T13:42:37.381Z,1.20
2023-07-25T13:47:39.711Z,0.90
2023-07-25T13:52:41.867Z,1.00
2023-07-25T13:57:44.568Z,1.02
2023-07-25T14:02:54.420Z,1.48
2023-07-25T14:07:56.710Z,1.35
2023-07-25T14:12:58.980Z,1.35
2023-07-25T14:18:01.921Z,0.60
2023-07-25T14:23:04.078Z,0.73
2023-07-25T14:28:06.205Z,1.00
2023-07-25T14:33:08.620Z,0.80
2023-07-25T14:38:12.511Z,0.70
2023-07-25T14:43:16.634Z,0.80
2023-07-25T14:48:19.005Z,0.57
2023-07-25T14:53:21.461Z,0.50
2023-07-25T14:58:23.907Z,0.50
2023-07-25T15:03:26.159Z,0.50
2023-07-25T15:08:28.212Z,0.90
2023-07-25T15:13:30.252Z,0.88
2023-07-25T15:18:32.321Z,0.88
2023-07-25T15:23:34.297Z,0.75
2023-07-25T15:28:36.195Z,0.70
2023-07-25T15:33:38.386Z,1.00
2023-07-25T15:38:40.405Z,0.70
2023-07-25T15:43:42.471Z,0.32
2023-07-25T15:48:46.825Z,0.73
2023-07-25T15:53:50.604Z,0.75
2023-07-25T15:58:52.472Z,0.73
2023-07-25T16:03:54.372Z,0.70
2023-07-25T16:08:57.506Z,0.50
2023-07-25T16:13:59.714Z,0.65
2023-07-25T16:19:02.161Z,0.60
2023-07-25T16:24:04.376Z,0.70
2023-07-25T16:29:06.358Z,1.05
2023-07-25T16:34:08.713Z,0.40
2023-07-25T16:39:11.516Z,0.88
2023-07-25T16:44:13.486Z,0.80
2023-07-25T16:49:15.866Z,0.57
2023-07-25T16:54:18.420Z,0.52
2023-07-25T16:59:20.527Z,0.65
2023-07-25T17:04:22.522Z,0.90
2023-07-25T17:09:24.726Z,0.80
2023-07-25T17:14:26.779Z,0.50
2023-07-25T17:19:28.955Z,0.40
2023-07-25T17:24:31.200Z,0.40
2023-07-25T17:29:33.291Z,0.80
2023-07-25T17:34:35.488Z,1.17
2023-07-25T17:39:37.700Z,0.50
2023-07-25T17:44:39.708Z,0.90
2023-07-25T17:49:41.728Z,1.13
2023-07-25T17:54:43.914Z,0.40
2023-07-25T17:59:45.833Z,0.20
2023-07-25T18:04:47.855Z,0.55
2023-07-25T18:09:49.823Z,0.47
2023-07-25T18:14:53.403Z,0.40
2023-07-25T18:19:55.929Z,0.40
2023-07-25T18:24:57.994Z,0.52
2023-07-25T18:30:00.048Z,0.35
2023-07-25T18:35:02.625Z,0.60
2023-07-25T18:40:05.077Z,0.57
2023-07-25T18:45:07.646Z,0.60
2023-07-25T18:50:09.924Z,0.50
2023-07-25T18:55:11.971Z,0.40
2023-07-25T19:00:14.558Z,0.47
2023-07-25T19:05:16.672Z,0.28
2023-07-25T19:10:19.178Z,0.80
2023-07-25T19:15:21.483Z,0.40
2023-07-25T19:20:24.204Z,0.45
2023-07-25T19:25:26.145Z,0.50
2023-07-25T19:30:28.153Z,0.30
2023-07-25T19:35:30.319Z,0.45
2023-07-25T19:40:34.286Z,0.25
2023-07-25T19:45:36.316Z,0.47
2023-07-25T19:50:46.545Z,0.30
2023-07-25T19:55:55.422Z,0.22
2023-07-25T20:00:59.002Z,0.32
2023-07-25T20:06:01.337Z,0.30
2023-07-25T20:11:04.872Z,0.60
2023-07-25T20:16:07.101Z,0.60
2023-07-25T20:21:11.521Z,0.57
2023-07-25T20:26:15.068Z,0.47
2023-07-25T20:31:17.675Z,0.57
2023-07-25T20:36:19.946Z,0.40
2023-07-25T20:41:22.136Z,0.30
2023-07-25T20:46:24.280Z,0.77
2023-07-25T20:51:26.867Z,0.40
2023-07-25T20:56:30.540Z,0.30
2023-07-25T21:01:32.871Z,0.15
2023-07-25T21:06:35.884Z,0.40
2023-07-25T21:11:37.856Z,0.30
2023-07-25T21:16:39.905Z,0.40
2023-07-25T21:21:41.925Z,0.32
2023-07-25T21:26:44.118Z,0.20
2023-07-25T21:31:46.058Z,0.22
2023-07-25T21:36:50.010Z,0.30
2023-07-25T21:41:52.257Z,0.20
2023-07-25T21:46:54.651Z,0.40
2023-07-25T21:51:56.434Z,0.40
2023-07-25T21:56:58.472Z,0.50
2023-07-25T22:02:00.410Z,0.20
2023-07-25T22:07:03.487Z,0.30
2023-07-25T22:12:07.234Z,0.40
2023-07-25T22:17:09.129Z,0.40
2023-07-25T22:22:11.241Z,0.30
2023-07-25T22:27:13.283Z,0.43
2023-07-25T22:32:15.168Z,0.35
2023-07-25T22:37:17.370Z,0.20
2023-07-25T22:42:19.376Z,0.32
2023-07-25T22:47:21.473Z,0.20
2023-07-25T22:52:24.989Z,0.25
2023-07-25T22:57:27.020Z,0.35
2023-07-25T23:02:29.939Z,0.20
2023-07-25T23:07:32.095Z,0.22
2023-07-25T23:12:34.149Z,0.20
2023-07-25T23:17:36.364Z,0.32
2023-07-25T23:22:38.379Z,0.40
2023-07-25T23:27:40.444Z,0.10
2023-07-25T23:32:42.562Z,0.20
2023-07-25T23:37:44.582Z,0.30
2023-07-25T23:42:46.624Z,0.45
2023-07-25T23:47:48.601Z,0.30
2023-07-25T23:52:50.697Z,0.10
2023-07-25T23:57:52.928Z,0.30
